EZY18FP EDDB-EGKK
Flight info
| Callsign | EZY18FP |
|---|---|
| Flight time | 1h 37m |
| Altitude | 36000 |
| Route | SUKIP3Q SUKIP Y206 BUREL P203 HLZ L980 SAS DCT SOGPO DCT GALSO Q63 ARREK Y4 TEBRA |
| Aircraft | A320/M-SDE2E3FGHIRWXY/LB1 |
Departure
| Time | 2026-05-05 10:08 |
|---|---|
| Airport | Berlin Brandenburg Airport (EDDB) |
Arrival
| Time | 2026-05-05 11:46 |
|---|---|
| Airport | London Gatwick Airport (EGKK) |
| Time | Latitude | Longitude | Altitude | Speed | Heading |
|---|---|---|---|---|---|
| 2026-05-05 09:59 | 52.36618 | 13.50290 | 154 ft | 0 kts | 159° |
| 2026-05-05 10:00 | 52.36617 | 13.50291 | 154 ft | 2 kts | 159° |
| 2026-05-05 10:00 | 52.36572 | 13.50319 | 154 ft | 12 kts | 159° |
| 2026-05-05 10:01 | 52.36474 | 13.50381 | 154 ft | 16 kts | 159° |
| 2026-05-05 10:01 | 52.36369 | 13.50447 | 154 ft | 16 kts | 158° |
| 2026-05-05 10:01 | 52.36264 | 13.50516 | 154 ft | 17 kts | 158° |
| 2026-05-05 10:01 | 52.36157 | 13.50584 | 154 ft | 16 kts | 159° |
| 2026-05-05 10:02 | 52.36051 | 13.50650 | 154 ft | 16 kts | 159° |
| 2026-05-05 10:02 | 52.35949 | 13.50714 | 154 ft | 15 kts | 159° |
| 2026-05-05 10:02 | 52.35855 | 13.50773 | 154 ft | 13 kts | 160° |
| 2026-05-05 10:02 | 52.35792 | 13.50714 | 154 ft | 11 kts | 249° |
| 2026-05-05 10:03 | 52.35767 | 13.50607 | 154 ft | 9 kts | 250° |
| 2026-05-05 10:03 | 52.35741 | 13.50492 | 154 ft | 13 kts | 249° |
| 2026-05-05 10:03 | 52.35703 | 13.50327 | 154 ft | 18 kts | 249° |
| 2026-05-05 10:03 | 52.35670 | 13.50188 | 154 ft | 21 kts | 249° |
| 2026-05-05 10:04 | 52.35611 | 13.49942 | 154 ft | 25 kts | 248° |
| 2026-05-05 10:04 | 52.35541 | 13.49655 | 154 ft | 29 kts | 248° |
| 2026-05-05 10:04 | 52.35469 | 13.49346 | 154 ft | 29 kts | 249° |
| 2026-05-05 10:04 | 52.35396 | 13.49031 | 154 ft | 30 kts | 249° |
| 2026-05-05 10:05 | 52.35320 | 13.48712 | 154 ft | 30 kts | 249° |
| 2026-05-05 10:05 | 52.35242 | 13.48386 | 154 ft | 31 kts | 248° |
| 2026-05-05 10:05 | 52.35164 | 13.48060 | 154 ft | 31 kts | 248° |
| 2026-05-05 10:05 | 52.35083 | 13.47722 | 154 ft | 32 kts | 249° |
| 2026-05-05 10:06 | 52.35005 | 13.47390 | 154 ft | 32 kts | 249° |
| 2026-05-05 10:06 | 52.34926 | 13.47069 | 154 ft | 23 kts | 247° |
| 2026-05-05 10:06 | 52.34873 | 13.46839 | 154 ft | 22 kts | 250° |
| 2026-05-05 10:06 | 52.34789 | 13.46692 | 154 ft | 13 kts | 167° |
| 2026-05-05 10:07 | 52.34713 | 13.46769 | 154 ft | 18 kts | 157° |
| 2026-05-05 10:07 | 52.34578 | 13.46909 | 154 ft | 28 kts | 111° |
| 2026-05-05 10:07 | 52.34655 | 13.47329 | 154 ft | 65 kts | 69° |
| 2026-05-05 10:07 | 52.34906 | 13.48367 | 154 ft | 127 kts | 68° |
| 2026-05-05 10:08 | 52.35289 | 13.49963 | 195 ft | 170 kts | 68° |
| 2026-05-05 10:08 | 52.35733 | 13.51815 | 671 ft | 178 kts | 68° |
| 2026-05-05 10:08 | 52.36031 | 13.53785 | 1299 ft | 185 kts | 84° |
| 2026-05-05 10:08 | 52.36165 | 13.56002 | 1635 ft | 207 kts | 84° |
| 2026-05-05 10:09 | 52.36310 | 13.58427 | 1969 ft | 230 kts | 85° |
| 2026-05-05 10:09 | 52.36472 | 13.61171 | 2365 ft | 254 kts | 85° |
| 2026-05-05 10:09 | 52.36649 | 13.64127 | 3037 ft | 265 kts | 85° |
| 2026-05-05 10:09 | 52.36833 | 13.67151 | 3901 ft | 269 kts | 85° |
| 2026-05-05 10:10 | 52.36996 | 13.70219 | 4750 ft | 272 kts | 90° |
| 2026-05-05 10:10 | 52.36540 | 13.73175 | 5509 ft | 274 kts | 124° |
| 2026-05-05 10:10 | 52.35169 | 13.75288 | 6295 ft | 273 kts | 153° |
| 2026-05-05 10:10 | 52.33402 | 13.76368 | 7076 ft | 272 kts | 177° |
| 2026-05-05 10:11 | 52.31540 | 13.75999 | 7953 ft | 272 kts | 199° |
| 2026-05-05 10:11 | 52.29763 | 13.74822 | 8580 ft | 285 kts | 204° |
| 2026-05-05 10:11 | 52.28055 | 13.73708 | 8824 ft | 306 kts | 204° |
| 2026-05-05 10:11 | 52.26136 | 13.71960 | 9150 ft | 325 kts | 218° |
| 2026-05-05 10:12 | 52.24415 | 13.68855 | 9950 ft | 332 kts | 240° |
| 2026-05-05 10:12 | 52.23582 | 13.65846 | 10598 ft | 336 kts | 248° |
| 2026-05-05 10:12 | 52.22751 | 13.62341 | 11357 ft | 339 kts | 248° |
| 2026-05-05 10:12 | 52.21920 | 13.58725 | 12114 ft | 341 kts | 249° |
| 2026-05-05 10:13 | 52.21092 | 13.55079 | 12867 ft | 344 kts | 249° |
| 2026-05-05 10:13 | 52.20257 | 13.51405 | 13588 ft | 347 kts | 249° |
| 2026-05-05 10:13 | 52.19431 | 13.47685 | 14213 ft | 351 kts | 252° |
| 2026-05-05 10:13 | 52.18972 | 13.43756 | 14820 ft | 356 kts | 263° |
| 2026-05-05 10:14 | 52.18770 | 13.39726 | 15429 ft | 359 kts | 263° |
| 2026-05-05 10:14 | 52.18562 | 13.35648 | 16084 ft | 363 kts | 263° |
| 2026-05-05 10:14 | 52.18347 | 13.31539 | 16820 ft | 366 kts | 263° |
| 2026-05-05 10:14 | 52.18126 | 13.27384 | 17526 ft | 369 kts | 263° |
| 2026-05-05 10:15 | 52.17902 | 13.23222 | 18124 ft | 372 kts | 263° |
| 2026-05-05 10:15 | 52.17676 | 13.19007 | 18668 ft | 375 kts | 263° |
| 2026-05-05 10:15 | 52.17449 | 13.14769 | 19237 ft | 377 kts | 263° |
| 2026-05-05 10:15 | 52.17217 | 13.10441 | 19837 ft | 379 kts | 263° |
| 2026-05-05 10:16 | 52.16984 | 13.06208 | 20424 ft | 382 kts | 263° |
| 2026-05-05 10:16 | 52.16746 | 13.01932 | 20932 ft | 384 kts | 263° |
| 2026-05-05 10:16 | 52.16506 | 12.97585 | 21425 ft | 386 kts | 263° |
| 2026-05-05 10:16 | 52.16081 | 12.93268 | 21902 ft | 387 kts | 256° |
| 2026-05-05 10:17 | 52.15528 | 12.89297 | 22334 ft | 389 kts | 255° |
| 2026-05-05 10:17 | 52.14921 | 12.84999 | 22871 ft | 389 kts | 255° |
| 2026-05-05 10:17 | 52.14308 | 12.80702 | 23372 ft | 391 kts | 255° |
| 2026-05-05 10:17 | 52.13713 | 12.76376 | 23769 ft | 393 kts | 259° |
| 2026-05-05 10:18 | 52.13577 | 12.71925 | 24138 ft | 398 kts | 272° |
| 2026-05-05 10:18 | 52.14140 | 12.67496 | 24501 ft | 404 kts | 286° |
| 2026-05-05 10:18 | 52.15235 | 12.63837 | 24773 ft | 412 kts | 299° |
| 2026-05-05 10:18 | 52.17086 | 12.60216 | 25139 ft | 421 kts | 312° |
| 2026-05-05 10:19 | 52.19244 | 12.56975 | 25488 ft | 423 kts | 313° |
| 2026-05-05 10:19 | 52.21421 | 12.53738 | 25836 ft | 424 kts | 313° |
| 2026-05-05 10:19 | 52.23524 | 12.50384 | 26172 ft | 421 kts | 306° |
| 2026-05-05 10:19 | 52.25228 | 12.46535 | 26497 ft | 416 kts | 296° |
| 2026-05-05 10:20 | 52.26458 | 12.42294 | 26838 ft | 412 kts | 286° |
| 2026-05-05 10:20 | 52.27214 | 12.37835 | 27192 ft | 409 kts | 280° |
| 2026-05-05 10:20 | 52.27853 | 12.33304 | 27510 ft | 410 kts | 280° |
| 2026-05-05 10:20 | 52.28489 | 12.28754 | 27806 ft | 411 kts | 280° |
| 2026-05-05 10:21 | 52.29125 | 12.24196 | 28099 ft | 412 kts | 280° |
| 2026-05-05 10:21 | 52.29739 | 12.19788 | 28375 ft | 414 kts | 280° |
| 2026-05-05 10:21 | 52.30364 | 12.15313 | 28637 ft | 415 kts | 280° |
| 2026-05-05 10:21 | 52.31004 | 12.10711 | 28897 ft | 416 kts | 280° |
| 2026-05-05 10:22 | 52.31640 | 12.06097 | 29141 ft | 417 kts | 280° |
| 2026-05-05 10:22 | 52.32276 | 12.01468 | 29373 ft | 418 kts | 279° |
| 2026-05-05 10:22 | 52.32908 | 11.96831 | 29660 ft | 417 kts | 279° |
| 2026-05-05 10:22 | 52.33387 | 11.93343 | 29926 ft | 416 kts | 279° |
| 2026-05-05 10:23 | 52.34022 | 11.88731 | 30206 ft | 415 kts | 279° |
| 2026-05-05 10:23 | 52.34483 | 11.84103 | 30472 ft | 411 kts | 271° |
| 2026-05-05 10:23 | 52.34586 | 11.79447 | 30733 ft | 409 kts | 270° |
| 2026-05-05 10:23 | 52.34679 | 11.74801 | 30995 ft | 408 kts | 270° |
| 2026-05-05 10:24 | 52.34777 | 11.70283 | 31275 ft | 407 kts | 270° |
| 2026-05-05 10:24 | 52.34877 | 11.65660 | 31541 ft | 406 kts | 270° |
| 2026-05-05 10:24 | 52.34975 | 11.61045 | 31802 ft | 406 kts | 270° |
| 2026-05-05 10:24 | 52.35072 | 11.56435 | 32067 ft | 405 kts | 270° |
| 2026-05-05 10:25 | 52.35164 | 11.51843 | 32336 ft | 404 kts | 270° |
| 2026-05-05 10:25 | 52.35252 | 11.47299 | 32607 ft | 403 kts | 270° |
| 2026-05-05 10:25 | 52.35339 | 11.42723 | 32905 ft | 402 kts | 270° |
| 2026-05-05 10:25 | 52.35423 | 11.38244 | 33195 ft | 400 kts | 270° |
| 2026-05-05 10:26 | 52.35505 | 11.33706 | 33468 ft | 399 kts | 270° |
| 2026-05-05 10:26 | 52.35581 | 11.29324 | 33730 ft | 398 kts | 269° |
| 2026-05-05 10:26 | 52.35654 | 11.24983 | 33970 ft | 397 kts | 269° |
| 2026-05-05 10:26 | 52.35728 | 11.20466 | 34185 ft | 397 kts | 269° |
| 2026-05-05 10:27 | 52.35800 | 11.15950 | 34376 ft | 398 kts | 269° |
| 2026-05-05 10:27 | 52.35871 | 11.11420 | 34548 ft | 398 kts | 269° |
| 2026-05-05 10:27 | 52.35938 | 11.07031 | 34712 ft | 399 kts | 269° |
| 2026-05-05 10:27 | 52.36009 | 11.02540 | 34872 ft | 400 kts | 269° |
| 2026-05-05 10:28 | 52.36079 | 10.98080 | 35028 ft | 401 kts | 269° |
| 2026-05-05 10:28 | 52.36151 | 10.93523 | 35199 ft | 401 kts | 269° |
| 2026-05-05 10:28 | 52.36219 | 10.88960 | 35352 ft | 402 kts | 269° |
| 2026-05-05 10:28 | 52.36283 | 10.84417 | 35499 ft | 402 kts | 269° |
| 2026-05-05 10:29 | 52.36277 | 10.79843 | 35645 ft | 402 kts | 264° |
| 2026-05-05 10:29 | 52.35851 | 10.75366 | 35808 ft | 400 kts | 257° |
| 2026-05-05 10:29 | 52.34742 | 10.66408 | 35894 ft | 403 kts | 258° |
| 2026-05-05 10:30 | 52.33674 | 10.57484 | 35894 ft | 403 kts | 258° |
| 2026-05-05 10:30 | 52.32595 | 10.48498 | 35895 ft | 403 kts | 258° |
| 2026-05-05 10:31 | 52.31496 | 10.39520 | 35889 ft | 403 kts | 257° |
| 2026-05-05 10:31 | 52.30391 | 10.30580 | 35878 ft | 402 kts | 258° |
| 2026-05-05 10:32 | 52.29280 | 10.21625 | 35881 ft | 402 kts | 258° |
| 2026-05-05 10:32 | 52.28160 | 10.12666 | 35886 ft | 403 kts | 258° |
| 2026-05-05 10:33 | 52.27050 | 10.03872 | 35891 ft | 403 kts | 257° |
| 2026-05-05 10:33 | 52.25914 | 9.94915 | 35899 ft | 403 kts | 257° |
| 2026-05-05 10:34 | 52.24921 | 9.85904 | 35909 ft | 404 kts | 263° |
| 2026-05-05 10:34 | 52.24351 | 9.76905 | 35908 ft | 404 kts | 263° |
| 2026-05-05 10:35 | 52.23774 | 9.67793 | 35907 ft | 404 kts | 262° |
| 2026-05-05 10:35 | 52.23188 | 9.58772 | 35909 ft | 404 kts | 262° |
| 2026-05-05 10:36 | 52.22583 | 9.49659 | 35906 ft | 404 kts | 262° |
| 2026-05-05 10:36 | 52.21980 | 9.40580 | 35905 ft | 404 kts | 262° |
| 2026-05-05 10:37 | 52.21388 | 9.31717 | 35909 ft | 404 kts | 262° |
| 2026-05-05 10:37 | 52.20770 | 9.22616 | 35913 ft | 404 kts | 262° |
| 2026-05-05 10:38 | 52.20145 | 9.13536 | 35924 ft | 404 kts | 262° |
| 2026-05-05 10:38 | 52.19507 | 9.04444 | 35922 ft | 404 kts | 262° |
| 2026-05-05 10:39 | 52.18872 | 8.95350 | 35915 ft | 404 kts | 262° |
| 2026-05-05 10:39 | 52.18237 | 8.86325 | 35904 ft | 404 kts | 261° |
| 2026-05-05 10:40 | 52.17578 | 8.77217 | 35900 ft | 405 kts | 261° |
| 2026-05-05 10:40 | 52.16918 | 8.68221 | 35917 ft | 406 kts | 261° |
| 2026-05-05 10:41 | 52.16242 | 8.59059 | 35905 ft | 406 kts | 261° |
| 2026-05-05 10:41 | 52.15560 | 8.49933 | 35903 ft | 406 kts | 261° |
| 2026-05-05 10:42 | 52.14539 | 8.36381 | 35941 ft | 407 kts | 261° |
| 2026-05-05 10:43 | 52.13848 | 8.27254 | 35946 ft | 406 kts | 261° |
| 2026-05-05 10:43 | 52.13154 | 8.18160 | 35938 ft | 405 kts | 261° |
| 2026-05-05 10:44 | 52.12444 | 8.09062 | 35935 ft | 405 kts | 261° |
| 2026-05-05 10:44 | 52.11848 | 8.01509 | 35939 ft | 405 kts | 261° |
| 2026-05-05 10:45 | 52.11140 | 7.92654 | 35929 ft | 405 kts | 261° |
| 2026-05-05 10:45 | 52.10298 | 7.82102 | 35934 ft | 405 kts | 260° |
| 2026-05-05 10:46 | 52.09694 | 7.74633 | 35943 ft | 404 kts | 260° |
| 2026-05-05 10:46 | 52.08942 | 7.65470 | 35928 ft | 404 kts | 260° |
| 2026-05-05 10:47 | 52.08197 | 7.56424 | 35917 ft | 404 kts | 260° |
| 2026-05-05 10:47 | 52.07445 | 7.47430 | 35927 ft | 404 kts | 260° |
| 2026-05-05 10:48 | 52.06680 | 7.38386 | 35926 ft | 404 kts | 260° |
| 2026-05-05 10:48 | 52.05919 | 7.29399 | 35923 ft | 405 kts | 259° |
| 2026-05-05 10:49 | 52.05149 | 7.20329 | 35907 ft | 405 kts | 259° |
| 2026-05-05 10:49 | 52.04368 | 7.11252 | 35907 ft | 406 kts | 259° |
| 2026-05-05 10:50 | 52.03576 | 7.02213 | 35908 ft | 406 kts | 259° |
| 2026-05-05 10:50 | 52.02771 | 6.93140 | 35910 ft | 406 kts | 259° |
| 2026-05-05 10:51 | 52.01963 | 6.84084 | 35920 ft | 407 kts | 259° |
| 2026-05-05 10:51 | 52.01149 | 6.74991 | 35913 ft | 408 kts | 259° |
| 2026-05-05 10:52 | 52.00332 | 6.65883 | 35917 ft | 408 kts | 259° |
| 2026-05-05 10:52 | 51.99500 | 6.56775 | 35912 ft | 408 kts | 259° |
| 2026-05-05 10:53 | 51.98661 | 6.47671 | 35911 ft | 408 kts | 258° |
| 2026-05-05 10:53 | 51.97812 | 6.38556 | 35918 ft | 409 kts | 258° |
| 2026-05-05 10:54 | 51.96949 | 6.29469 | 35913 ft | 410 kts | 258° |
| 2026-05-05 10:54 | 51.96129 | 6.20302 | 35908 ft | 412 kts | 261° |
| 2026-05-05 10:55 | 51.95560 | 6.11037 | 35912 ft | 414 kts | 262° |
| 2026-05-05 10:55 | 51.95044 | 6.01744 | 35921 ft | 414 kts | 262° |
| 2026-05-05 10:56 | 51.94472 | 5.92454 | 35924 ft | 414 kts | 261° |
| 2026-05-05 10:56 | 51.93872 | 5.83166 | 35942 ft | 415 kts | 261° |
| 2026-05-05 10:57 | 51.93254 | 5.73865 | 35932 ft | 416 kts | 261° |
| 2026-05-05 10:57 | 51.92631 | 5.64560 | 35931 ft | 416 kts | 261° |
| 2026-05-05 10:58 | 51.91996 | 5.55223 | 35931 ft | 416 kts | 261° |
| 2026-05-05 10:58 | 51.91358 | 5.45900 | 35919 ft | 417 kts | 261° |
| 2026-05-05 10:59 | 51.90708 | 5.36573 | 35932 ft | 417 kts | 261° |
| 2026-05-05 10:59 | 51.90055 | 5.27231 | 35924 ft | 418 kts | 261° |
| 2026-05-05 11:00 | 51.89388 | 5.17883 | 35921 ft | 418 kts | 261° |
| 2026-05-05 11:00 | 51.88717 | 5.08522 | 35921 ft | 419 kts | 261° |
| 2026-05-05 11:01 | 51.88046 | 4.99160 | 35925 ft | 419 kts | 261° |
| 2026-05-05 11:01 | 51.87354 | 4.89800 | 35926 ft | 419 kts | 261° |
| 2026-05-05 11:02 | 51.86652 | 4.80420 | 35917 ft | 421 kts | 261° |
| 2026-05-05 11:02 | 51.85942 | 4.71015 | 35912 ft | 422 kts | 261° |
| 2026-05-05 11:03 | 51.85226 | 4.61576 | 35925 ft | 423 kts | 261° |
| 2026-05-05 11:03 | 51.84501 | 4.52121 | 35931 ft | 424 kts | 260° |
| 2026-05-05 11:04 | 51.83766 | 4.42658 | 35935 ft | 424 kts | 260° |
| 2026-05-05 11:04 | 51.83023 | 4.33188 | 35937 ft | 425 kts | 260° |
| 2026-05-05 11:05 | 51.82267 | 4.23723 | 35940 ft | 425 kts | 260° |
| 2026-05-05 11:05 | 51.81509 | 4.14260 | 35940 ft | 425 kts | 260° |
| 2026-05-05 11:06 | 51.80748 | 4.04796 | 35945 ft | 425 kts | 260° |
| 2026-05-05 11:06 | 51.79979 | 3.95339 | 35945 ft | 425 kts | 260° |
| 2026-05-05 11:07 | 51.79193 | 3.85945 | 35965 ft | 425 kts | 260° |
| 2026-05-05 11:07 | 51.78389 | 3.76479 | 35951 ft | 426 kts | 260° |
| 2026-05-05 11:08 | 51.77587 | 3.67004 | 35950 ft | 426 kts | 260° |
| 2026-05-05 11:08 | 51.76780 | 3.57526 | 35949 ft | 426 kts | 260° |
| 2026-05-05 11:09 | 51.75975 | 3.48040 | 35957 ft | 427 kts | 260° |
| 2026-05-05 11:09 | 51.75146 | 3.38550 | 35955 ft | 427 kts | 260° |
| 2026-05-05 11:10 | 51.74307 | 3.28985 | 35954 ft | 428 kts | 260° |
| 2026-05-05 11:10 | 51.73469 | 3.19536 | 35877 ft | 430 kts | 260° |
| 2026-05-05 11:10 | 51.73037 | 3.14749 | 35266 ft | 431 kts | 259° |
| 2026-05-05 11:11 | 51.72618 | 3.09976 | 34687 ft | 428 kts | 260° |
| 2026-05-05 11:11 | 51.72213 | 3.05226 | 34106 ft | 427 kts | 259° |
| 2026-05-05 11:11 | 51.71812 | 3.00495 | 33450 ft | 426 kts | 259° |
| 2026-05-05 11:11 | 51.71409 | 2.95752 | 32822 ft | 428 kts | 259° |
| 2026-05-05 11:12 | 51.70998 | 2.90989 | 32157 ft | 429 kts | 259° |
| 2026-05-05 11:12 | 51.70584 | 2.86246 | 31542 ft | 426 kts | 259° |
| 2026-05-05 11:12 | 51.70170 | 2.81526 | 30968 ft | 424 kts | 259° |
| 2026-05-05 11:12 | 51.69753 | 2.76833 | 30414 ft | 422 kts | 259° |
| 2026-05-05 11:13 | 51.69334 | 2.72170 | 29849 ft | 420 kts | 259° |
| 2026-05-05 11:13 | 51.68918 | 2.67528 | 29227 ft | 417 kts | 259° |
| 2026-05-05 11:13 | 51.68505 | 2.62917 | 28602 ft | 415 kts | 259° |
| 2026-05-05 11:13 | 51.68095 | 2.58335 | 28005 ft | 412 kts | 259° |
| 2026-05-05 11:14 | 51.67686 | 2.53783 | 27410 ft | 409 kts | 259° |
| 2026-05-05 11:14 | 51.67277 | 2.49262 | 26839 ft | 406 kts | 259° |
| 2026-05-05 11:14 | 51.66869 | 2.44773 | 26273 ft | 404 kts | 259° |
| 2026-05-05 11:14 | 51.66462 | 2.40313 | 25723 ft | 402 kts | 259° |
| 2026-05-05 11:15 | 51.66053 | 2.35868 | 25173 ft | 400 kts | 259° |
| 2026-05-05 11:15 | 51.65645 | 2.31454 | 24646 ft | 398 kts | 259° |
| 2026-05-05 11:15 | 51.65235 | 2.27065 | 24122 ft | 396 kts | 259° |
| 2026-05-05 11:15 | 51.64824 | 2.22691 | 23611 ft | 394 kts | 260° |
| 2026-05-05 11:16 | 51.64412 | 2.18334 | 23015 ft | 393 kts | 259° |
| 2026-05-05 11:16 | 51.64003 | 2.13998 | 22453 ft | 391 kts | 259° |
| 2026-05-05 11:16 | 51.63599 | 2.09683 | 21928 ft | 389 kts | 261° |
| 2026-05-05 11:16 | 51.63200 | 2.05393 | 21403 ft | 387 kts | 260° |
| 2026-05-05 11:17 | 51.62806 | 2.01126 | 20887 ft | 385 kts | 260° |
| 2026-05-05 11:17 | 51.62416 | 1.96878 | 20381 ft | 383 kts | 259° |
| 2026-05-05 11:17 | 51.62025 | 1.92656 | 19896 ft | 381 kts | 259° |
| 2026-05-05 11:17 | 51.61629 | 1.88458 | 19405 ft | 379 kts | 258° |
| 2026-05-05 11:18 | 51.60907 | 1.84418 | 18921 ft | 375 kts | 245° |
| 2026-05-05 11:18 | 51.59631 | 1.80795 | 18440 ft | 371 kts | 231° |
| 2026-05-05 11:18 | 51.57955 | 1.77659 | 17928 ft | 369 kts | 227° |
| 2026-05-05 11:18 | 51.56254 | 1.74583 | 17389 ft | 367 kts | 227° |
| 2026-05-05 11:19 | 51.54566 | 1.71515 | 16862 ft | 366 kts | 227° |
| 2026-05-05 11:19 | 51.52882 | 1.68460 | 16351 ft | 365 kts | 227° |
| 2026-05-05 11:19 | 51.51200 | 1.65411 | 15837 ft | 364 kts | 228° |
| 2026-05-05 11:19 | 51.49563 | 1.62325 | 15333 ft | 363 kts | 233° |
| 2026-05-05 11:20 | 51.48331 | 1.58796 | 14837 ft | 363 kts | 247° |
| 2026-05-05 11:20 | 51.47452 | 1.55012 | 14353 ft | 362 kts | 249° |
| 2026-05-05 11:20 | 51.46588 | 1.51241 | 14030 ft | 356 kts | 249° |
| 2026-05-05 11:20 | 51.45737 | 1.47554 | 13964 ft | 350 kts | 249° |
| 2026-05-05 11:21 | 51.44835 | 1.43942 | 13973 ft | 349 kts | 241° |
| 2026-05-05 11:21 | 51.43542 | 1.40653 | 13974 ft | 349 kts | 236° |
| 2026-05-05 11:21 | 51.42194 | 1.37411 | 13974 ft | 350 kts | 236° |
| 2026-05-05 11:21 | 51.40842 | 1.34179 | 13978 ft | 349 kts | 236° |
| 2026-05-05 11:22 | 51.39489 | 1.30956 | 13975 ft | 348 kts | 236° |
| 2026-05-05 11:22 | 51.38133 | 1.27743 | 13977 ft | 349 kts | 236° |
| 2026-05-05 11:22 | 51.36789 | 1.24564 | 13978 ft | 349 kts | 236° |
| 2026-05-05 11:22 | 51.35429 | 1.21344 | 13976 ft | 349 kts | 236° |
| 2026-05-05 11:23 | 51.34073 | 1.18135 | 13981 ft | 349 kts | 235° |
| 2026-05-05 11:23 | 51.32713 | 1.14922 | 13976 ft | 349 kts | 235° |
| 2026-05-05 11:23 | 51.31350 | 1.11697 | 13977 ft | 350 kts | 236° |
| 2026-05-05 11:23 | 51.29984 | 1.08471 | 13976 ft | 350 kts | 236° |
| 2026-05-05 11:24 | 51.28622 | 1.05255 | 13975 ft | 350 kts | 235° |
| 2026-05-05 11:24 | 51.27259 | 1.02030 | 13975 ft | 350 kts | 236° |
| 2026-05-05 11:24 | 51.25892 | 0.98805 | 13975 ft | 350 kts | 235° |
| 2026-05-05 11:24 | 51.24525 | 0.95589 | 13976 ft | 350 kts | 236° |
| 2026-05-05 11:25 | 51.23156 | 0.92376 | 13757 ft | 350 kts | 236° |
| 2026-05-05 11:25 | 51.21789 | 0.89168 | 13462 ft | 349 kts | 236° |
| 2026-05-05 11:25 | 51.20428 | 0.85979 | 13156 ft | 346 kts | 235° |
| 2026-05-05 11:25 | 51.19083 | 0.82841 | 12852 ft | 339 kts | 236° |
| 2026-05-05 11:26 | 51.17763 | 0.79759 | 12554 ft | 333 kts | 236° |
| 2026-05-05 11:26 | 51.16470 | 0.76735 | 12248 ft | 328 kts | 236° |
| 2026-05-05 11:26 | 51.15193 | 0.73759 | 11954 ft | 323 kts | 236° |
| 2026-05-05 11:26 | 51.13939 | 0.70842 | 11647 ft | 318 kts | 236° |
| 2026-05-05 11:27 | 51.12699 | 0.67968 | 11372 ft | 313 kts | 236° |
| 2026-05-05 11:27 | 51.11474 | 0.65136 | 11077 ft | 308 kts | 236° |
| 2026-05-05 11:27 | 51.10281 | 0.62381 | 10792 ft | 304 kts | 236° |
| 2026-05-05 11:27 | 51.09092 | 0.59626 | 10506 ft | 300 kts | 236° |
| 2026-05-05 11:28 | 51.08316 | 0.57824 | 10313 ft | 297 kts | 236° |
| 2026-05-05 11:28 | 51.07154 | 0.55131 | 10026 ft | 293 kts | 236° |
| 2026-05-05 11:28 | 51.06024 | 0.52518 | 9710 ft | 291 kts | 236° |
| 2026-05-05 11:28 | 51.04923 | 0.49976 | 9404 ft | 290 kts | 236° |
| 2026-05-05 11:29 | 51.03780 | 0.47347 | 9085 ft | 288 kts | 236° |
| 2026-05-05 11:29 | 51.02643 | 0.44735 | 8764 ft | 286 kts | 235° |
| 2026-05-05 11:29 | 51.01520 | 0.42163 | 8449 ft | 281 kts | 235° |
| 2026-05-05 11:29 | 51.00417 | 0.39634 | 8158 ft | 276 kts | 235° |
| 2026-05-05 11:30 | 50.99349 | 0.37185 | 8073 ft | 265 kts | 235° |
| 2026-05-05 11:30 | 50.98300 | 0.34781 | 7930 ft | 267 kts | 235° |
| 2026-05-05 11:30 | 50.97245 | 0.32364 | 7544 ft | 266 kts | 235° |
| 2026-05-05 11:30 | 50.96250 | 0.29902 | 7162 ft | 264 kts | 245° |
| 2026-05-05 11:31 | 50.95876 | 0.27096 | 6785 ft | 261 kts | 271° |
| 2026-05-05 11:31 | 50.95978 | 0.24237 | 6415 ft | 259 kts | 275° |
| 2026-05-05 11:31 | 50.96144 | 0.21399 | 6088 ft | 256 kts | 276° |
| 2026-05-05 11:31 | 50.96307 | 0.18610 | 6060 ft | 252 kts | 276° |
| 2026-05-05 11:32 | 50.96464 | 0.15874 | 6053 ft | 248 kts | 276° |
| 2026-05-05 11:32 | 50.96616 | 0.13192 | 6052 ft | 248 kts | 276° |
| 2026-05-05 11:32 | 50.96775 | 0.10477 | 6042 ft | 246 kts | 277° |
| 2026-05-05 11:32 | 50.96940 | 0.07784 | 6035 ft | 245 kts | 276° |
| 2026-05-05 11:33 | 50.97099 | 0.05083 | 6038 ft | 247 kts | 276° |
| 2026-05-05 11:33 | 50.97256 | 0.02414 | 6029 ft | 246 kts | 276° |
| 2026-05-05 11:33 | 50.97422 | -0.00327 | 5786 ft | 248 kts | 276° |
| 2026-05-05 11:33 | 50.97586 | -0.03035 | 5473 ft | 245 kts | 276° |
| 2026-05-05 11:34 | 50.97740 | -0.05719 | 5162 ft | 245 kts | 276° |
| 2026-05-05 11:34 | 50.97881 | -0.08419 | 4861 ft | 245 kts | 276° |
| 2026-05-05 11:34 | 50.98009 | -0.11119 | 4552 ft | 245 kts | 276° |
| 2026-05-05 11:34 | 50.98135 | -0.13804 | 4238 ft | 243 kts | 276° |
| 2026-05-05 11:35 | 50.98250 | -0.16422 | 4033 ft | 239 kts | 276° |
| 2026-05-05 11:35 | 50.98348 | -0.19036 | 4001 ft | 232 kts | 276° |
| 2026-05-05 11:35 | 50.98435 | -0.21501 | 4007 ft | 215 kts | 276° |
| 2026-05-05 11:35 | 50.98519 | -0.23789 | 4039 ft | 201 kts | 276° |
| 2026-05-05 11:36 | 50.98588 | -0.25994 | 4014 ft | 199 kts | 276° |
| 2026-05-05 11:36 | 50.98665 | -0.28171 | 4001 ft | 197 kts | 277° |
| 2026-05-05 11:36 | 50.98746 | -0.30339 | 4002 ft | 197 kts | 276° |
| 2026-05-05 11:36 | 50.98822 | -0.32515 | 4007 ft | 198 kts | 275° |
| 2026-05-05 11:37 | 50.98902 | -0.34719 | 3809 ft | 201 kts | 276° |
| 2026-05-05 11:37 | 50.98978 | -0.36871 | 3500 ft | 198 kts | 276° |
| 2026-05-05 11:37 | 50.99046 | -0.39046 | 3195 ft | 197 kts | 276° |
| 2026-05-05 11:37 | 50.99115 | -0.41183 | 3017 ft | 192 kts | 276° |
| 2026-05-05 11:38 | 50.99175 | -0.43286 | 3011 ft | 191 kts | 276° |
| 2026-05-05 11:38 | 50.99237 | -0.45387 | 3009 ft | 191 kts | 276° |
| 2026-05-05 11:38 | 50.99317 | -0.47491 | 3007 ft | 190 kts | 281° |
| 2026-05-05 11:38 | 50.99874 | -0.49293 | 3001 ft | 182 kts | 322° |
| 2026-05-05 11:39 | 51.00942 | -0.50304 | 3011 ft | 179 kts | 338° |
| 2026-05-05 11:39 | 51.02086 | -0.51059 | 3008 ft | 178 kts | 341° |
| 2026-05-05 11:39 | 51.03237 | -0.51788 | 3009 ft | 179 kts | 340° |
| 2026-05-05 11:39 | 51.04392 | -0.52511 | 3009 ft | 178 kts | 341° |
| 2026-05-05 11:40 | 51.05548 | -0.53197 | 3009 ft | 176 kts | 349° |
| 2026-05-05 11:40 | 51.06715 | -0.52965 | 3009 ft | 175 kts | 30° |
| 2026-05-05 11:40 | 51.07623 | -0.51640 | 3012 ft | 177 kts | 48° |
| 2026-05-05 11:40 | 51.08379 | -0.50122 | 3011 ft | 177 kts | 51° |
| 2026-05-05 11:41 | 51.09121 | -0.48567 | 3009 ft | 176 kts | 51° |
| 2026-05-05 11:41 | 51.09860 | -0.47016 | 3007 ft | 176 kts | 51° |
| 2026-05-05 11:41 | 51.10599 | -0.45458 | 3011 ft | 177 kts | 51° |
| 2026-05-05 11:41 | 51.11302 | -0.43859 | 3000 ft | 178 kts | 62° |
| 2026-05-05 11:42 | 51.11629 | -0.41955 | 2892 ft | 180 kts | 75° |
| 2026-05-05 11:42 | 51.11896 | -0.40016 | 2683 ft | 178 kts | 74° |
| 2026-05-05 11:42 | 51.12156 | -0.38137 | 2460 ft | 173 kts | 73° |
| 2026-05-05 11:42 | 51.12412 | -0.36300 | 2225 ft | 168 kts | 74° |
| 2026-05-05 11:43 | 51.12660 | -0.34524 | 2004 ft | 158 kts | 74° |
| 2026-05-05 11:43 | 51.12871 | -0.33014 | 1818 ft | 156 kts | 72° |
| 2026-05-05 11:43 | 51.13109 | -0.31314 | 1604 ft | 156 kts | 75° |
| 2026-05-05 11:43 | 51.13346 | -0.29614 | 1391 ft | 158 kts | 74° |
| 2026-05-05 11:44 | 51.13578 | -0.27940 | 1163 ft | 151 kts | 72° |
| 2026-05-05 11:44 | 51.13731 | -0.26855 | 1028 ft | 149 kts | 73° |
| 2026-05-05 11:44 | 51.13948 | -0.25289 | 811 ft | 146 kts | 76° |
| 2026-05-05 11:44 | 51.14166 | -0.23728 | 591 ft | 144 kts | 74° |
| 2026-05-05 11:45 | 51.14379 | -0.22182 | 412 ft | 144 kts | 74° |
| 2026-05-05 11:45 | 51.14593 | -0.20636 | 243 ft | 141 kts | 74° |
| 2026-05-05 11:45 | 51.14801 | -0.19190 | 213 ft | 119 kts | 76° |
| 2026-05-05 11:45 | 51.14937 | -0.18174 | 207 ft | 69 kts | 77° |
| 2026-05-05 11:46 | 51.15009 | -0.17644 | 207 ft | 40 kts | 79° |
| 2026-05-05 11:46 | 51.15085 | -0.17291 | 208 ft | 23 kts | 56° |
| 2026-05-05 11:46 | 51.15180 | -0.17239 | 210 ft | 10 kts | 326° |
| 2026-05-05 11:46 | 51.15227 | -0.17292 | 209 ft | 7 kts | 323° |
| 2026-05-05 11:47 | 51.15255 | -0.17325 | 206 ft | 4 kts | 323° |
| 2026-05-05 11:47 | 51.15290 | -0.17350 | 204 ft | 0 kts | 345° |
| 2026-05-05 11:47 | 51.15293 | -0.17351 | 204 ft | 2 kts | 345° |
| 2026-05-05 11:47 | 51.15333 | -0.17362 | 212 ft | 9 kts | 352° |
| 2026-05-05 11:48 | 51.15488 | -0.17416 | 205 ft | 14 kts | 347° |
| 2026-05-05 11:48 | 51.15548 | -0.17477 | 207 ft | 13 kts | 280° |
| 2026-05-05 11:48 | 51.15520 | -0.17652 | 204 ft | 18 kts | 256° |
| 2026-05-05 11:49 | 51.15520 | -0.17732 | 212 ft | 5 kts | 314° |
| 2026-05-05 11:49 | 51.15547 | -0.17747 | 204 ft | 4 kts | 346° |
| 2026-05-05 11:49 | 51.15568 | -0.17754 | 208 ft | 2 kts | 348° |
| 2026-05-05 11:49 | 51.15573 | -0.17756 | 206 ft | 0 kts | 348° |